Time;durP1;ratioP1;P1;durP2;ratioP2;P2;SDS_P1;SDS_P2;PMS_P1;PMS_P2;Temp;Humidity;BMP_temperature;BMP_pressure;BME280_temperature;BME280_humidity;BME280_pressure;Samples;Min_cycle;Max_cycle;Signal;HPM_P1;HPM_P2
2024/01/13 00:00:08;;;;;;;1.60;1.40;;;2.20;98.20;;;;;;4973258;28;20542;-81
2024/01/13 00:02:35;;;;;;;1.60;1.40;;;2.20;98.20;;;;;;4957713;28;21001;-83
2024/01/13 00:05:02;;;;;;;1.67;1.50;;;2.20;98.20;;;;;;4972680;28;20544;-83
2024/01/13 00:10:28;;;;;;;5.10;3.43;;;2.20;98.20;;;;;;4988724;28;20621;-86
2024/01/13 00:13:00;;;;;;;1.67;1.50;;;2.20;98.20;;;;;;4978980;28;20488;-86
2024/01/13 00:15:32;;;;;;;1.70;1.40;;;2.20;98.20;;;;;;4988154;28;20461;-86
2024/01/13 00:17:59;;;;;;;1.60;1.40;;;2.20;98.20;;;;;;4986587;28;20483;-85
2024/01/13 00:20:35;;;;;;;1.60;1.40;;;2.20;98.20;;;;;;5003182;28;20459;-84
2024/01/13 00:23:22;;;;;;;1.60;1.50;;;2.20;98.20;;;;;;4994775;28;20520;-84
2024/01/13 00:25:56;;;;;;;1.60;1.50;;;2.20;98.20;;;;;;4977356;28;20500;-87
2024/01/13 00:28:24;;;;;;;1.60;1.47;;;2.20;98.20;;;;;;5004069;28;20491;-85
2024/01/13 00:30:51;;;;;;;1.63;1.40;;;2.20;98.20;;;;;;4976565;28;20509;-86
2024/01/13 00:33:24;;;;;;;1.60;1.40;;;2.20;98.20;;;;;;5003967;28;20465;-86
2024/01/13 00:35:51;;;;;;;1.70;1.50;;;2.20;98.20;;;;;;4981137;28;20453;-86
2024/01/13 00:38:18;;;;;;;1.60;1.40;;;2.20;98.20;;;;;;5004666;28;20551;-85
2024/01/13 00:40:46;;;;;;;1.60;1.40;;;2.20;98.20;;;;;;4993513;28;20477;-85
2024/01/13 00:43:14;;;;;;;1.60;1.40;;;2.20;98.20;;;;;;4986981;28;20484;-84
2024/01/13 00:45:54;;;;;;;1.60;1.40;;;2.20;98.20;;;;;;4989936;28;20577;-85
2024/01/13 00:48:39;;;;;;;1.67;1.50;;;2.20;98.20;;;;;;4965750;28;20472;-85
2024/01/13 00:51:12;;;;;;;1.60;1.40;;;2.20;98.20;;;;;;4979761;28;20486;-86
2024/01/13 00:53:39;;;;;;;1.63;1.50;;;2.20;98.20;;;;;;5004578;28;20880;-86
2024/01/13 00:56:07;;;;;;;1.70;1.50;;;2.20;98.20;;;;;;4984097;28;20469;-84
2024/01/13 00:58:35;;;;;;;1.63;1.50;;;2.20;98.20;;;;;;5000333;28;20870;-86
2024/01/13 01:01:03;;;;;;;1.60;1.40;;;2.20;98.20;;;;;;4981335;28;20546;-85
2024/01/13 01:03:30;;;;;;;1.67;1.50;;;2.20;98.20;;;;;;5004728;28;20469;-86
2024/01/13 01:05:58;;;;;;;1.60;1.40;;;2.20;98.20;;;;;;4987684;28;20559;-85
2024/01/13 01:08:26;;;;;;;1.63;1.40;;;2.20;98.20;;;;;;5004753;28;20484;-86
2024/01/13 01:10:53;;;;;;;1.60;1.40;;;2.20;98.20;;;;;;4978147;28;20473;-85
2024/01/13 01:13:20;;;;;;;1.63;1.50;;;2.20;98.20;;;;;;5003252;28;20457;-86
2024/01/13 01:15:48;;;;;;;1.60;1.40;;;2.20;98.20;;;;;;4989814;28;20862;-85
2024/01/13 01:18:20;;;;;;;1.60;1.40;;;2.20;98.20;;;;;;5008186;28;20551;-86
2024/01/13 01:23:42;;;;;;;1.60;1.40;;;2.20;98.20;;;;;;4996638;28;20487;-84
2024/01/13 01:26:09;;;;;;;1.60;1.40;;;2.20;98.20;;;;;;4982738;28;20511;-86
2024/01/13 01:28:36;;;;;;;1.70;1.60;;;2.20;98.20;;;;;;5010077;28;20485;-87
2024/01/13 01:31:05;;;;;;;1.60;1.40;;;2.20;98.20;;;;;;4986600;28;20502;-86
2024/01/13 01:33:32;;;;;;;1.60;1.50;;;2.20;98.20;;;;;;5007620;28;20497;-86
2024/01/13 01:35:59;;;;;;;1.60;1.40;;;2.20;98.20;;;;;;4987140;28;20493;-86
2024/01/13 01:38:26;;;;;;;1.70;1.43;;;2.20;98.20;;;;;;5003536;28;20486;-86
2024/01/13 01:40:55;;;;;;;1.60;1.43;;;2.20;98.20;;;;;;4978556;28;20504;-86
2024/01/13 01:43:22;;;;;;;1.60;1.47;;;2.20;98.20;;;;;;5009630;28;20496;-86
2024/01/13 01:45:51;;;;;;;1.70;1.50;;;2.20;98.20;;;;;;4982730;28;20470;-86
2024/01/13 01:48:35;;;;;;;1.70;1.40;;;2.20;98.20;;;;;;5010026;28;20536;-85
2024/01/13 01:51:09;;;;;;;1.60;1.40;;;2.20;98.20;;;;;;4983365;28;20497;-85
2024/01/13 01:53:37;;;;;;;1.60;1.50;;;2.20;98.20;;;;;;5009746;28;20471;-85
2024/01/13 01:56:08;;;;;;;1.60;1.40;;;2.20;98.20;;;;;;4991227;28;20469;-85
2024/01/13 01:58:35;;;;;;;1.63;1.40;;;2.20;98.20;;;;;;5006715;28;20593;-85
2024/01/13 02:01:03;;;;;;;1.60;1.40;;;2.20;98.20;;;;;;4985659;28;20534;-85
2024/01/13 02:06:22;;;;;;;1.60;1.40;;;2.20;98.20;;;;;;4985441;28;20576;-85
2024/01/13 02:08:59;;;;;;;1.60;1.50;;;2.20;98.20;;;;;;5006447;28;20501;-84
2024/01/13 02:11:34;;;;;;;1.60;1.40;;;2.20;98.20;;;;;;4990137;28;21076;-86
2024/01/13 02:14:01;;;;;;;1.60;1.40;;;2.20;98.20;;;;;;5004709;28;20515;-85
2024/01/13 02:16:28;;;;;;;1.70;1.50;;;2.20;98.20;;;;;;4987477;28;20473;-84
2024/01/13 02:18:55;;;;;;;1.70;1.50;;;2.20;98.20;;;;;;5014745;28;20488;-84
2024/01/13 02:21:23;;;;;;;1.60;1.50;;;2.20;98.20;;;;;;4996629;28;20476;-85
2024/01/13 02:23:52;;;;;;;1.60;1.40;;;2.20;98.20;;;;;;4997838;28;20477;-86
2024/01/13 02:26:19;;;;;;;1.67;1.47;;;2.20;98.20;;;;;;4979906;28;20840;-85
2024/01/13 02:28:45;;;;;;;1.60;1.40;;;2.20;98.20;;;;;;4990161;28;20481;-86
2024/01/13 02:31:14;;;;;;;1.60;1.40;;;2.20;98.20;;;;;;4980187;28;20624;-85
2024/01/13 02:34:07;;;;;;;2.00;1.87;;;2.20;98.20;;;;;;5002587;28;20470;-84
2024/01/13 02:36:40;;;;;;;1.63;1.50;;;2.20;98.20;;;;;;4972544;28;20528;-82
2024/01/13 02:39:08;;;;;;;1.60;1.40;;;2.20;98.20;;;;;;4983093;28;20494;-86
2024/01/13 02:41:36;;;;;;;1.60;1.50;;;2.20;98.20;;;;;;4979410;28;20501;-86
2024/01/13 02:44:03;;;;;;;1.67;1.50;;;2.20;98.20;;;;;;4992079;28;20465;-85
2024/01/13 02:46:30;;;;;;;1.63;1.40;;;2.20;98.20;;;;;;4982694;28;21014;-84
2024/01/13 02:48:59;;;;;;;2.77;2.40;;;2.20;98.20;;;;;;5005218;28;20481;-84
2024/01/13 02:51:27;;;;;;;1.67;1.47;;;2.20;98.20;;;;;;4976648;28;20581;-86
2024/01/13 02:53:54;;;;;;;1.60;1.40;;;2.20;98.20;;;;;;4992007;28;20470;-85
2024/01/13 02:56:23;;;;;;;1.60;1.40;;;2.20;98.20;;;;;;4979152;28;20480;-83
2024/01/13 02:58:53;;;;;;;1.60;1.40;;;2.20;98.20;;;;;;4993744;28;20489;-83
2024/01/13 03:01:22;;;;;;;1.60;1.40;;;2.20;98.20;;;;;;4986371;28;20552;-82
2024/01/13 03:03:53;;;;;;;1.60;1.37;;;2.20;98.20;;;;;;5011595;28;20474;-83
2024/01/13 03:06:28;;;;;;;1.60;1.40;;;2.20;98.20;;;;;;4992015;28;20539;-83
2024/01/13 03:08:56;;;;;;;1.60;1.30;;;2.20;98.20;;;;;;4987309;28;20548;-83
2024/01/13 03:11:35;;;;;;;1.60;1.40;;;2.20;98.20;;;;;;4981368;28;20477;-83
2024/01/13 03:14:02;;;;;;;1.63;1.40;;;2.20;98.20;;;;;;4988692;28;20504;-83
2024/01/13 03:16:29;;;;;;;1.80;1.70;;;2.20;98.20;;;;;;4983664;28;20895;-83
2024/01/13 03:18:56;;;;;;;1.90;1.80;;;2.20;98.20;;;;;;4999691;28;20518;-83
2024/01/13 03:21:24;;;;;;;1.60;1.50;;;2.20;98.20;;;;;;4981936;28;20696;-83
2024/01/13 03:23:51;;;;;;;1.67;1.47;;;2.20;98.20;;;;;;4997950;28;20486;-83
2024/01/13 03:26:22;;;;;;;1.60;1.50;;;2.20;98.20;;;;;;4982375;28;20499;-83
2024/01/13 03:28:50;;;;;;;1.60;1.50;;;2.20;98.20;;;;;;5002429;28;20912;-83
2024/01/13 03:31:17;;;;;;;1.60;1.40;;;2.20;98.20;;;;;;4981581;28;20532;-83
2024/01/13 03:33:52;;;;;;;1.70;1.50;;;2.20;98.20;;;;;;4990452;28;20537;-83
2024/01/13 03:39:10;;;;;;;1.63;1.50;;;2.20;98.20;;;;;;5010809;23;20507;-85
2024/01/13 03:41:36;;;;;;;1.70;1.50;;;2.20;98.20;;;;;;5002043;28;20620;-85
2024/01/13 03:44:05;;;;;;;1.60;1.37;;;2.20;98.20;;;;;;5017671;28;20551;-85
2024/01/13 03:46:33;;;;;;;1.70;1.50;;;2.20;98.20;;;;;;5006915;28;20906;-85
2024/01/13 03:49:00;;;;;;;1.60;1.40;;;2.20;98.20;;;;;;5025610;28;20864;-85
2024/01/13 03:51:27;;;;;;;1.60;1.40;;;2.20;98.20;;;;;;5016359;28;20518;-82
2024/01/13 03:53:53;;;;;;;2.27;2.07;;;2.20;98.20;;;;;;5033872;28;20467;-82
2024/01/13 03:56:21;;;;;;;1.63;1.40;;;2.20;98.20;;;;;;5018819;28;20486;-82
2024/01/13 03:58:54;;;;;;;1.60;1.40;;;2.30;98.20;;;;;;5026270;28;20833;-83
2024/01/13 04:01:27;;;;;;;1.63;1.40;;;2.20;98.20;;;;;;5026935;28;20554;-83
2024/01/13 04:03:54;;;;;;;5.20;4.90;;;2.20;98.20;;;;;;5034777;28;20463;-82
2024/01/13 04:06:24;;;;;;;1.70;1.50;;;2.20;98.20;;;;;;5016544;28;20472;-82
2024/01/13 04:08:51;;;;;;;1.63;1.40;;;2.20;98.20;;;;;;5033302;28;20479;-82
2024/01/13 04:11:29;;;;;;;1.70;1.60;;;2.30;98.20;;;;;;5024059;28;20566;-82
2024/01/13 04:13:56;;;;;;;1.70;1.40;;;2.30;98.20;;;;;;5032343;28;20539;-83
2024/01/13 04:16:24;;;;;;;1.60;1.50;;;2.30;98.20;;;;;;5032007;28;20472;-82
2024/01/13 04:18:51;;;;;;;1.63;1.40;;;2.20;98.20;;;;;;5044019;28;20507;-82
2024/01/13 04:21:18;;;;;;;1.60;1.40;;;2.30;98.20;;;;;;5021568;28;20479;-83
2024/01/13 04:23:45;;;;;;;1.63;1.40;;;2.20;98.20;;;;;;5027523;28;20471;-82
2024/01/13 04:26:12;;;;;;;1.60;1.50;;;2.20;98.20;;;;;;5025957;28;20483;-82
2024/01/13 04:28:39;;;;;;;1.60;1.40;;;2.20;98.20;;;;;;5033379;28;21160;-82
2024/01/13 04:31:07;;;;;;;1.70;1.60;;;2.20;98.20;;;;;;5022601;28;20471;-82
2024/01/13 04:33:36;;;;;;;1.60;1.40;;;2.20;98.20;;;;;;5031989;28;20471;-82
2024/01/13 04:39:49;;;;;;;1.60;1.50;;;2.30;98.20;;;;;;4998356;28;20479;-83
2024/01/13 04:42:16;;;;;;;1.70;1.50;;;2.30;98.20;;;;;;5020429;28;20506;-82
2024/01/13 04:44:43;;;;;;;1.60;1.40;;;2.30;98.20;;;;;;5032205;28;20539;-83
2024/01/13 04:47:09;;;;;;;1.60;1.40;;;2.30;98.20;;;;;;5016375;28;20489;-82
2024/01/13 04:49:38;;;;;;;1.63;1.50;;;2.30;98.20;;;;;;5033559;28;20624;-82
2024/01/13 04:52:05;;;;;;;1.60;1.40;;;2.30;98.20;;;;;;5021924;28;20518;-82
2024/01/13 04:54:32;;;;;;;1.60;1.40;;;2.30;98.20;;;;;;5034642;28;20518;-82
2024/01/13 04:57:00;;;;;;;1.60;1.40;;;2.30;98.20;;;;;;5013826;28;20585;-82
2024/01/13 04:59:27;;;;;;;1.60;1.40;;;2.30;98.20;;;;;;5034714;28;20578;-82
2024/01/13 05:01:54;;;;;;;1.63;1.40;;;2.30;98.20;;;;;;5020340;28;20538;-84
2024/01/13 05:04:21;;;;;;;1.70;1.60;;;2.30;98.20;;;;;;5036329;28;21109;-83
2024/01/13 05:06:49;;;;;;;1.60;1.50;;;2.30;98.20;;;;;;5022535;28;20518;-83
2024/01/13 05:09:16;;;;;;;1.60;1.40;;;2.40;98.20;;;;;;5031863;28;20501;-83
2024/01/13 05:11:42;;;;;;;1.63;1.40;;;2.40;98.20;;;;;;5021832;28;20483;-83
2024/01/13 05:14:09;;;;;;;1.60;1.40;;;2.40;98.20;;;;;;5025985;28;20463;-83
2024/01/13 05:16:39;;;;;;;1.60;1.40;;;2.40;98.20;;;;;;5017172;28;21117;-83
2024/01/13 05:19:06;;;;;;;1.60;1.40;;;2.40;98.20;;;;;;5030007;28;20981;-83
2024/01/13 05:21:33;;;;;;;1.63;1.40;;;2.40;98.20;;;;;;5022275;28;20546;-83
2024/01/13 05:24:01;;;;;;;1.60;1.40;;;2.40;98.20;;;;;;5026207;28;20563;-83
2024/01/13 05:26:28;;;;;;;1.60;1.50;;;2.40;98.20;;;;;;5025482;28;20498;-83
2024/01/13 05:28:54;;;;;;;1.70;1.50;;;2.40;98.20;;;;;;5033570;28;20532;-82
2024/01/13 05:31:21;;;;;;;1.60;1.40;;;2.40;98.20;;;;;;5024750;28;20546;-83
2024/01/13 05:33:48;;;;;;;1.63;1.50;;;2.40;98.20;;;;;;5033211;28;20481;-83
2024/01/13 05:36:23;;;;;;;1.60;1.40;;;2.40;98.20;;;;;;5018584;28;20568;-83
2024/01/13 05:38:49;;;;;;;1.63;1.40;;;2.40;98.20;;;;;;5028863;28;20522;-83
2024/01/13 05:41:25;;;;;;;1.60;1.40;;;2.40;98.20;;;;;;5017306;28;20568;-83
2024/01/13 05:43:52;;;;;;;1.60;1.40;;;2.40;98.20;;;;;;5015742;28;20469;-83
2024/01/13 05:46:19;;;;;;;1.60;1.40;;;2.40;98.20;;;;;;5033467;28;20971;-83
2024/01/13 05:48:46;;;;;;;1.60;1.40;;;2.40;98.20;;;;;;5027898;28;20472;-83
2024/01/13 05:51:13;;;;;;;1.70;1.40;;;2.40;98.20;;;;;;5023971;28;21219;-83
2024/01/13 05:53:40;;;;;;;1.60;1.40;;;2.40;98.20;;;;;;5033158;28;20463;-83
2024/01/13 05:56:07;;;;;;;1.70;1.60;;;2.40;98.20;;;;;;5017135;28;20492;-82
2024/01/13 05:58:35;;;;;;;1.60;1.37;;;2.40;98.20;;;;;;5024721;28;20518;-83
2024/01/13 06:01:02;;;;;;;1.70;1.57;;;2.40;98.20;;;;;;5021504;28;20476;-83
2024/01/13 06:03:29;;;;;;;1.60;1.40;;;2.40;98.20;;;;;;5034726;28;20455;-83
2024/01/13 06:05:56;;;;;;;1.70;1.50;;;2.50;98.20;;;;;;5020754;28;20514;-83
2024/01/13 06:08:22;;;;;;;1.60;1.50;;;2.50;98.20;;;;;;5031560;28;20502;-83
2024/01/13 06:10:51;;;;;;;1.67;1.47;;;2.50;98.20;;;;;;5020507;28;20502;-83
2024/01/13 06:13:18;;;;;;;1.60;1.40;;;2.50;98.20;;;;;;5031028;28;20493;-83
2024/01/13 06:15:47;;;;;;;1.60;1.40;;;2.50;98.20;;;;;;5028453;28;20471;-83
2024/01/13 06:18:13;;;;;;;1.70;1.47;;;2.50;98.20;;;;;;4998467;28;20471;-83
2024/01/13 06:20:40;;;;;;;1.60;1.40;;;2.50;98.20;;;;;;5036833;28;20558;-83
2024/01/13 06:23:07;;;;;;;1.60;1.40;;;2.40;98.20;;;;;;5018121;28;20479;-83
2024/01/13 06:25:35;;;;;;;1.67;1.40;;;2.40;98.20;;;;;;5038117;28;20471;-84
2024/01/13 06:30:43;;;;;;;1.60;1.40;;;2.50;98.20;;;;;;5033723;28;20521;-84
2024/01/13 06:33:12;;;;;;;1.60;1.40;;;2.50;98.20;;;;;;5019401;28;20507;-83
2024/01/13 06:35:38;;;;;;;1.60;1.30;;;2.50;98.20;;;;;;5028500;28;20468;-84
2024/01/13 06:38:05;;;;;;;1.70;1.47;;;2.50;98.20;;;;;;5022899;28;20513;-84
2024/01/13 06:40:35;;;;;;;1.60;1.40;;;2.50;98.20;;;;;;5032302;28;20558;-83
2024/01/13 06:43:07;;;;;;;1.67;1.50;;;2.50;98.20;;;;;;5017665;28;20488;-83
2024/01/13 06:45:34;;;;;;;1.60;1.40;;;2.50;98.20;;;;;;5037246;28;20985;-83
2024/01/13 06:48:01;;;;;;;1.60;1.30;;;2.50;98.20;;;;;;5022930;28;20581;-82
2024/01/13 06:50:29;;;;;;;1.70;1.60;;;2.50;98.20;;;;;;5031237;28;20917;-83
2024/01/13 06:52:56;;;;;;;1.60;1.50;;;2.50;98.20;;;;;;5024848;28;20474;-83
2024/01/13 06:55:24;;;;;;;1.67;1.40;;;2.50;98.20;;;;;;5037821;28;20459;-83
2024/01/13 06:57:51;;;;;;;1.70;1.60;;;2.50;98.20;;;;;;5024422;28;20487;-83
2024/01/13 07:00:19;;;;;;;1.70;1.50;;;2.50;98.20;;;;;;5035047;28;20502;-83
2024/01/13 07:02:46;;;;;;;1.60;1.40;;;2.50;98.20;;;;;;5022935;28;20524;-83
2024/01/13 07:05:13;;;;;;;1.73;1.63;;;2.50;98.20;;;;;;5034976;28;20456;-83
2024/01/13 07:07:42;;;;;;;1.67;1.47;;;2.50;98.20;;;;;;5022857;28;20493;-83
2024/01/13 07:10:10;;;;;;;1.80;1.70;;;2.50;98.20;;;;;;5028660;28;20530;-82
2024/01/13 07:12:37;;;;;;;1.60;1.40;;;2.50;98.20;;;;;;5005206;28;20491;-83
2024/01/13 07:15:05;;;;;;;1.63;1.40;;;2.50;98.20;;;;;;5031111;28;20566;-83
2024/01/13 07:17:31;;;;;;;1.60;1.40;;;2.50;98.20;;;;;;5016891;28;20483;-82
2024/01/13 07:20:03;;;;;;;1.70;1.40;;;2.50;98.20;;;;;;5028428;28;20506;-83
2024/01/13 07:22:36;;;;;;;1.60;1.40;;;2.40;98.20;;;;;;5019753;28;20479;-83
2024/01/13 07:25:04;;;;;;;1.70;1.60;;;2.40;98.20;;;;;;5028522;28;20475;-83
2024/01/13 07:27:32;;;;;;;1.60;1.40;;;2.50;98.20;;;;;;5024824;28;20483;-83
2024/01/13 07:29:59;;;;;;;1.60;1.40;;;2.40;98.20;;;;;;5032097;28;20490;-83
2024/01/13 07:32:26;;;;;;;1.60;1.40;;;2.50;98.20;;;;;;5025170;28;20569;-83
2024/01/13 07:34:54;;;;;;;1.67;1.50;;;2.50;98.20;;;;;;5035948;28;20521;-83
2024/01/13 07:37:20;;;;;;;1.67;1.50;;;2.40;98.20;;;;;;5005007;28;20642;-83
2024/01/13 07:39:47;;;;;;;1.70;1.57;;;2.40;98.20;;;;;;5031311;28;20533;-83
2024/01/13 07:42:15;;;;;;;1.80;1.70;;;2.40;98.20;;;;;;5026173;28;20489;-83
2024/01/13 07:44:42;;;;;;;1.63;1.43;;;2.40;98.20;;;;;;5027331;28;20460;-83
2024/01/13 07:47:09;;;;;;;1.60;1.40;;;2.30;98.20;;;;;;5019495;28;20509;-83
2024/01/13 07:49:36;;;;;;;1.67;1.50;;;2.30;98.20;;;;;;5036801;28;20527;-83
2024/01/13 07:52:04;;;;;;;1.70;1.60;;;2.30;98.20;;;;;;5023490;28;20492;-83
2024/01/13 07:55:01;;;;;;;1.70;1.60;;;2.30;98.20;;;;;;5024633;28;20823;-83
2024/01/13 07:57:29;;;;;;;1.60;1.40;;;2.40;98.20;;;;;;5000061;28;20505;-83
2024/01/13 08:00:12;;;;;;;1.60;1.40;;;2.40;98.20;;;;;;5026371;28;20576;-83
2024/01/13 08:02:40;;;;;;;1.63;1.50;;;2.40;98.20;;;;;;5025432;28;20710;-83
2024/01/13 08:05:07;;;;;;;1.67;1.50;;;2.40;98.20;;;;;;5024310;28;20467;-81
2024/01/13 08:07:34;;;;;;;1.63;1.50;;;2.40;98.20;;;;;;5013780;28;20488;-81
2024/01/13 08:10:02;;;;;;;1.63;1.40;;;2.40;98.20;;;;;;5027188;28;20474;-81
2024/01/13 08:12:31;;;;;;;1.70;1.60;;;2.40;98.20;;;;;;5013978;28;20547;-81
2024/01/13 08:14:57;;;;;;;1.60;1.50;;;2.50;98.20;;;;;;5021979;28;20476;-82
2024/01/13 08:17:25;;;;;;;1.70;1.60;;;2.50;98.20;;;;;;5019420;28;20567;-83
2024/01/13 08:19:52;;;;;;;1.60;1.43;;;2.50;98.20;;;;;;5023983;28;21171;-84
2024/01/13 08:22:18;;;;;;;1.63;1.50;;;2.60;98.20;;;;;;5023928;28;20479;-80
2024/01/13 08:24:45;;;;;;;1.70;1.50;;;2.60;98.20;;;;;;5034774;28;20477;-81
2024/01/13 08:27:12;;;;;;;1.60;1.40;;;2.60;98.20;;;;;;5023024;28;20555;-81
2024/01/13 08:29:40;;;;;;;1.70;1.50;;;2.60;98.20;;;;;;5032622;28;20564;-84
2024/01/13 08:32:07;;;;;;;1.63;1.40;;;2.70;98.20;;;;;;5014755;28;20554;-81
2024/01/13 08:34:34;;;;;;;1.60;1.40;;;2.70;98.20;;;;;;5025220;28;21005;-84
2024/01/13 08:37:01;;;;;;;1.70;1.60;;;2.70;98.20;;;;;;4995821;28;20519;-83
2024/01/13 08:39:27;;;;;;;1.60;1.40;;;2.80;98.20;;;;;;5018180;28;20574;-82
2024/01/13 08:41:54;;;;;;;1.63;1.40;;;2.80;98.20;;;;;;5005374;28;20477;-83
2024/01/13 08:44:21;;;;;;;1.70;1.43;;;2.80;98.20;;;;;;5019369;28;21134;-85
2024/01/13 08:46:49;;;;;;;1.60;1.30;;;2.80;98.20;;;;;;5003053;28;20481;-83
2024/01/13 08:49:17;;;;;;;1.70;1.50;;;2.90;98.20;;;;;;5018818;28;20483;-80
2024/01/13 08:51:54;;;;;;;1.60;1.43;;;2.90;98.20;;;;;;5017412;28;20505;-80
2024/01/13 08:54:27;;;;;;;1.60;1.30;;;2.90;98.20;;;;;;5019477;28;20498;-83
2024/01/13 08:56:54;;;;;;;1.67;1.40;;;2.90;98.20;;;;;;4999044;28;20500;-81
2024/01/13 08:59:23;;;;;;;1.67;1.40;;;2.90;98.20;;;;;;5006332;28;20861;-82
2024/01/13 09:01:52;;;;;;;1.70;1.40;;;3.00;98.20;;;;;;5008090;28;20515;-79
2024/01/13 09:04:19;;;;;;;1.60;1.40;;;3.00;98.20;;;;;;5018623;28;20495;-81
2024/01/13 09:06:49;;;;;;;1.70;1.53;;;3.00;98.20;;;;;;5005303;28;20479;-81
2024/01/13 09:09:20;;;;;;;1.63;1.40;;;3.00;98.20;;;;;;5018111;28;20567;-80
2024/01/13 09:11:59;;;;;;;1.63;1.40;;;3.00;98.20;;;;;;5012306;28;20835;-80
2024/01/13 09:14:34;;;;;;;1.70;1.40;;;3.00;98.20;;;;;;5024065;28;20481;-80
2024/01/13 09:17:04;;;;;;;1.63;1.43;;;3.00;98.20;;;;;;5009735;28;20578;-80
2024/01/13 09:20:02;;;;;;;1.70;1.40;;;3.10;98.20;;;;;;5023975;28;20498;-80
2024/01/13 09:23:21;;;;;;;1.60;1.30;;;3.10;98.20;;;;;;5017374;28;20495;-78
2024/01/13 09:25:58;;;;;;;1.60;1.40;;;3.10;98.20;;;;;;4988251;28;20467;-82
2024/01/13 09:28:30;;;;;;;1.60;1.30;;;3.10;98.20;;;;;;5022416;28;20517;-81
2024/01/13 09:31:06;;;;;;;1.60;1.40;;;3.10;98.20;;;;;;5012670;28;20843;-81
2024/01/13 09:33:44;;;;;;;2.47;2.27;;;3.10;98.20;;;;;;5022080;28;20478;-81
2024/01/13 09:36:32;;;;;;;1.63;1.40;;;3.20;98.20;;;;;;5018829;28;20526;-81
2024/01/13 09:39:02;;;;;;;1.70;1.43;;;3.20;98.20;;;;;;5025479;28;21009;-81
2024/01/13 09:41:30;;;;;;;1.70;1.50;;;3.20;98.20;;;;;;5029017;28;20472;-82
2024/01/13 09:44:03;;;;;;;1.60;1.40;;;3.20;98.20;;;;;;5022831;28;20540;-81
2024/01/13 09:46:30;;;;;;;1.67;1.50;;;3.20;98.20;;;;;;5011817;28;20470;-81
2024/01/13 09:49:00;;;;;;;1.67;1.40;;;3.20;98.20;;;;;;5024126;28;20506;-81
2024/01/13 09:51:28;;;;;;;1.70;1.50;;;3.30;98.20;;;;;;5014919;28;20991;-81
2024/01/13 09:53:58;;;;;;;1.60;1.40;;;3.30;98.20;;;;;;5028578;28;20734;-82
2024/01/13 09:56:32;;;;;;;1.60;1.40;;;3.30;98.20;;;;;;5019307;28;20485;-83
2024/01/13 09:59:01;;;;;;;1.60;1.30;;;3.30;98.20;;;;;;5026922;28;20709;-82
2024/01/13 10:01:30;;;;;;;1.70;1.40;;;3.30;98.20;;;;;;5018434;28;20513;-81
2024/01/13 10:03:57;;;;;;;1.70;1.43;;;3.40;98.20;;;;;;5029351;28;20566;-82
2024/01/13 10:06:26;;;;;;;1.60;1.40;;;3.40;98.20;;;;;;5015605;28;20475;-82
2024/01/13 10:08:53;;;;;;;1.63;1.50;;;3.40;98.20;;;;;;5021681;28;21137;-82
2024/01/13 10:11:21;;;;;;;1.67;1.40;;;3.40;98.20;;;;;;5015883;28;20529;-80
2024/01/13 10:13:59;;;;;;;1.70;1.50;;;3.50;98.20;;;;;;5027433;28;20491;-82
2024/01/13 10:16:28;;;;;;;1.63;1.40;;;3.50;98.20;;;;;;5015956;28;20508;-83
2024/01/13 10:18:55;;;;;;;1.70;1.50;;;3.50;98.20;;;;;;5027539;28;20487;-82
2024/01/13 10:21:32;;;;;;;1.70;1.50;;;3.50;98.20;;;;;;5017941;28;20612;-81
2024/01/13 10:24:00;;;;;;;1.70;1.53;;;3.50;98.20;;;;;;5024096;28;20950;-82
2024/01/13 10:26:29;;;;;;;1.60;1.37;;;3.50;98.20;;;;;;5008814;28;20546;-81
2024/01/13 10:28:56;;;;;;;1.60;1.30;;;3.60;98.20;;;;;;5024674;28;20911;-81
2024/01/13 10:31:24;;;;;;;1.60;1.30;;;3.60;98.20;;;;;;5017365;28;20559;-81
2024/01/13 10:33:52;;;;;;;1.67;1.40;;;3.60;98.20;;;;;;5037140;28;20459;-80
2024/01/13 10:36:22;;;;;;;1.63;1.37;;;3.60;98.20;;;;;;5029814;28;20467;-80
2024/01/13 10:38:50;;;;;;;1.60;1.40;;;3.60;98.20;;;;;;5025653;28;20601;-81
2024/01/13 10:41:21;;;;;;;1.63;1.40;;;3.60;98.20;;;;;;5014603;28;20490;-81
2024/01/13 10:47:27;;;;;;;1.60;1.30;;;3.60;98.20;;;;;;4989129;28;20479;-81
2024/01/13 10:49:55;;;;;;;1.60;1.40;;;3.70;98.20;;;;;;5023468;28;20471;-81
2024/01/13 10:52:33;;;;;;;1.60;1.40;;;3.70;98.20;;;;;;5010728;28;20557;-82
2024/01/13 10:55:04;;;;;;;1.60;1.30;;;3.70;98.20;;;;;;5023659;28;20512;-81
2024/01/13 10:57:33;;;;;;;2.00;1.80;;;3.60;98.20;;;;;;5011104;28;20489;-81
2024/01/13 11:00:01;;;;;;;1.60;1.30;;;3.60;98.20;;;;;;5021206;28;20487;-82
2024/01/13 11:05:16;;;;;;;1.70;1.40;;;3.60;98.20;;;;;;5009165;28;20467;-81
2024/01/13 11:07:44;;;;;;;1.63;1.40;;;3.60;98.20;;;;;;5012939;28;20479;-81
2024/01/13 11:10:17;;;;;;;1.60;1.30;;;3.50;98.20;;;;;;5026266;28;20464;-81
2024/01/13 11:12:49;;;;;;;1.63;1.37;;;3.50;98.20;;;;;;5023535;28;20475;-81
2024/01/13 11:15:23;;;;;;;1.60;1.40;;;3.50;98.20;;;;;;5032897;28;20470;-82
2024/01/13 11:17:52;;;;;;;1.60;1.33;;;3.50;98.20;;;;;;4990799;28;20531;-82
2024/01/13 11:26:54;;;;;;;1.60;1.40;;;3.50;98.20;;;;;;4970688;28;20525;-82
2024/01/13 11:29:24;;;;;;;1.60;1.30;;;3.50;98.20;;;;;;5021191;28;20863;-82
2024/01/13 11:31:57;;;;;;;1.70;1.60;;;3.50;98.20;;;;;;5014407;28;20499;-82
2024/01/13 11:34:24;;;;;;;1.60;1.40;;;3.50;98.20;;;;;;5025146;28;20483;-82
2024/01/13 11:36:52;;;;;;;1.70;1.53;;;3.50;98.20;;;;;;5015135;28;21075;-81
2024/01/13 11:39:20;;;;;;;1.70;1.50;;;3.50;98.20;;;;;;5020010;28;20480;-81
2024/01/13 11:41:52;;;;;;;1.60;1.40;;;3.50;98.20;;;;;;5004993;28;21118;-80
2024/01/13 11:44:22;;;;;;;1.60;1.40;;;3.50;98.20;;;;;;5018601;28;20459;-82
2024/01/13 11:47:04;;;;;;;1.60;1.30;;;3.50;98.20;;;;;;5015311;28;21114;-81
2024/01/13 11:49:35;;;;;;;1.60;1.40;;;3.50;98.20;;;;;;5021789;28;20483;-80
2024/01/13 11:52:03;;;;;;;1.67;1.40;;;3.50;98.20;;;;;;5013566;28;20486;-81
2024/01/13 11:54:31;;;;;;;1.70;1.50;;;3.40;98.20;;;;;;5020438;28;20463;-81
2024/01/13 11:57:03;;;;;;;1.60;1.30;;;3.40;98.20;;;;;;5011593;28;20503;-81
2024/01/13 12:09:40;;;;;;;1.70;1.50;;;3.40;98.20;;;;;;4944015;23;20502;-82
2024/01/13 12:12:09;;;;;;;1.70;1.50;;;3.40;98.20;;;;;;4956477;28;20518;-80
2024/01/13 12:20:39;;;;;;;1.60;1.47;;;3.40;98.20;;;;;;5104184;23;20494;-82
2024/01/13 12:23:27;;;;;;;1.67;1.50;;;3.40;98.20;;;;;;4955600;28;20478;-81
2024/01/13 12:26:54;;;;;;;1.90;1.80;;;3.40;98.20;;;;;;4995783;28;20465;-80
2024/01/13 12:29:29;;;;;;;1.63;1.40;;;3.40;98.20;;;;;;4971539;28;20569;-80
2024/01/13 12:49:39;;;;;;;1.60;1.40;;;3.40;98.20;;;;;;4824625;29;20489;-80
2024/01/13 12:52:29;;;;;;;1.73;1.63;;;3.40;98.20;;;;;;4855737;29;20919;-79
2024/01/13 12:55:38;;;;;;;1.63;1.47;;;3.40;98.20;;;;;;4876186;29;20521;-80
2024/01/13 12:58:30;;;;;;;1.70;1.50;;;3.40;98.20;;;;;;4864490;29;20504;-79
2024/01/13 13:04:48;;;;;;;1.60;1.47;;;3.40;98.20;;;;;;4832793;29;20472;-80
2024/01/13 13:10:31;;;;;;;1.70;1.40;;;3.40;98.20;;;;;;4873674;29;20461;-80
2024/01/13 13:13:38;;;;;;;1.60;1.40;;;3.40;98.20;;;;;;4848502;29;20969;-81
2024/01/13 13:20:01;;;;;;;1.60;1.40;;;3.40;98.20;;;;;;4886810;28;20818;-81
2024/01/13 13:26:04;;;;;;;1.60;1.30;;;3.40;98.20;;;;;;4971119;28;20480;-80
2024/01/13 13:31:46;;;;;;;1.60;1.37;;;3.40;98.20;;;;;;4964148;28;21016;-80
2024/01/13 13:43:26;;;;;;;1.70;1.50;;;3.40;98.20;;;;;;5006290;28;20517;-81
2024/01/13 13:46:02;;;;;;;1.60;1.40;;;3.40;98.20;;;;;;5007958;28;20590;-78
2024/01/13 13:48:42;;;;;;;1.63;1.40;;;3.40;98.20;;;;;;4997812;28;21030;-79
2024/01/13 13:51:25;;;;;;;1.67;1.40;;;3.40;98.20;;;;;;4979035;28;20492;-80
2024/01/13 14:01:54;;;;;;;1.60;1.40;;;3.30;98.20;;;;;;4933330;28;20488;-80
2024/01/13 14:04:51;;;;;;;;;;;;;;;;;;;;;
2024/01/13 14:10:28;;;;;;;1.63;1.40;;;3.30;98.20;;;;;;3989743;23;20907;-80
2024/01/13 14:14:07;;;;;;;1.70;1.47;;;3.30;98.20;;;;;;4989098;28;20508;-80
2024/01/13 14:17:16;;;;;;;1.87;1.77;;;3.30;98.20;;;;;;4956256;28;20492;-81
2024/01/13 14:19:46;;;;;;;1.60;1.30;;;3.30;98.20;;;;;;4972620;28;20905;-81
2024/01/13 14:22:28;;;;;;;1.60;1.40;;;3.30;98.20;;;;;;4970906;28;20585;-81
2024/01/13 14:24:57;;;;;;;1.60;1.30;;;3.30;98.20;;;;;;4974891;28;20556;-82
2024/01/13 14:27:24;;;;;;;1.70;1.50;;;3.30;98.20;;;;;;4968246;28;20979;-81
2024/01/13 14:29:53;;;;;;;1.60;1.40;;;3.30;98.20;;;;;;4973288;28;20569;-81
2024/01/13 14:32:22;;;;;;;1.60;1.30;;;3.30;98.20;;;;;;4972609;28;20469;-79
2024/01/13 14:34:51;;;;;;;1.60;1.40;;;3.20;98.20;;;;;;4967322;28;20499;-81
2024/01/13 14:37:18;;;;;;;1.60;1.40;;;3.20;98.20;;;;;;4968885;28;20490;-82
2024/01/13 14:39:46;;;;;;;1.60;1.47;;;3.20;98.20;;;;;;4969894;28;20458;-80
2024/01/13 14:42:13;;;;;;;1.67;1.40;;;3.20;98.20;;;;;;4970858;28;20839;-80
2024/01/13 14:45:01;;;;;;;1.70;1.40;;;3.20;98.20;;;;;;4975142;28;20830;-80
2024/01/13 14:48:04;;;;;;;1.60;1.30;;;3.10;98.20;;;;;;4988641;23;20462;-81
2024/01/13 14:50:35;;;;;;;1.70;1.50;;;3.10;98.20;;;;;;4962150;28;20466;-80
2024/01/13 14:53:03;;;;;;;1.70;1.50;;;3.10;98.20;;;;;;4983398;28;20465;-80
2024/01/13 14:55:30;;;;;;;1.60;1.40;;;3.10;98.20;;;;;;4980021;28;20987;-80
2024/01/13 14:57:57;;;;;;;1.60;1.40;;;3.10;98.20;;;;;;4961027;28;20486;-81